sensor_id;sensor_type;location;lat;lon;timestamp;P1;durP1;ratioP1;P2;durP2;ratioP2
21239;SDS011;10778;48.962;9.018;2023-02-28T00:01:29;6.30;;;3.92;;
21239;SDS011;10778;48.962;9.018;2023-02-28T00:03:56;7.10;;;4.65;;
21239;SDS011;10778;48.962;9.018;2023-02-28T00:06:23;21.67;;;10.50;;
21239;SDS011;10778;48.962;9.018;2023-02-28T00:08:53;7.22;;;3.97;;
21239;SDS011;10778;48.962;9.018;2023-02-28T00:11:19;8.57;;;4.00;;
21239;SDS011;10778;48.962;9.018;2023-02-28T00:13:46;5.05;;;3.22;;
21239;SDS011;10778;48.962;9.018;2023-02-28T00:16:19;6.53;;;3.80;;
21239;SDS011;10778;48.962;9.018;2023-02-28T00:18:52;6.32;;;3.85;;
21239;SDS011;10778;48.962;9.018;2023-02-28T00:21:19;8.25;;;4.25;;
21239;SDS011;10778;48.962;9.018;2023-02-28T00:23:45;7.82;;;4.07;;
21239;SDS011;10778;48.962;9.018;2023-02-28T00:26:12;5.95;;;3.58;;
21239;SDS011;10778;48.962;9.018;2023-02-28T00:28:41;5.97;;;3.72;;
21239;SDS011;10778;48.962;9.018;2023-02-28T00:31:07;6.18;;;3.95;;
21239;SDS011;10778;48.962;9.018;2023-02-28T00:33:34;8.23;;;4.13;;
21239;SDS011;10778;48.962;9.018;2023-02-28T00:36:02;7.70;;;4.70;;
21239;SDS011;10778;48.962;9.018;2023-02-28T00:38:36;11.07;;;5.88;;
21239;SDS011;10778;48.962;9.018;2023-02-28T00:41:02;11.57;;;5.18;;
21239;SDS011;10778;48.962;9.018;2023-02-28T00:43:30;9.52;;;5.03;;
21239;SDS011;10778;48.962;9.018;2023-02-28T00:45:58;8.07;;;4.15;;
21239;SDS011;10778;48.962;9.018;2023-02-28T00:48:24;29.17;;;9.50;;
21239;SDS011;10778;48.962;9.018;2023-02-28T00:50:50;10.68;;;5.53;;
21239;SDS011;10778;48.962;9.018;2023-02-28T00:53:17;20.33;;;8.27;;
21239;SDS011;10778;48.962;9.018;2023-02-28T00:55:44;13.57;;;6.53;;
21239;SDS011;10778;48.962;9.018;2023-02-28T00:58:10;10.05;;;5.40;;
21239;SDS011;10778;48.962;9.018;2023-02-28T01:00:36;21.05;;;8.13;;
21239;SDS011;10778;48.962;9.018;2023-02-28T01:03:02;15.43;;;7.30;;
21239;SDS011;10778;48.962;9.018;2023-02-28T01:05:28;16.75;;;7.32;;
21239;SDS011;10778;48.962;9.018;2023-02-28T01:07:54;29.60;;;10.30;;
21239;SDS011;10778;48.962;9.018;2023-02-28T01:10:22;8.10;;;4.43;;
21239;SDS011;10778;48.962;9.018;2023-02-28T01:12:52;11.48;;;4.35;;
21239;SDS011;10778;48.962;9.018;2023-02-28T01:15:18;12.05;;;5.18;;
21239;SDS011;10778;48.962;9.018;2023-02-28T01:17:46;15.15;;;5.75;;
21239;SDS011;10778;48.962;9.018;2023-02-28T01:20:12;22.55;;;8.25;;
21239;SDS011;10778;48.962;9.018;2023-02-28T01:22:38;8.65;;;4.50;;
21239;SDS011;10778;48.962;9.018;2023-02-28T01:25:04;21.08;;;7.00;;
21239;SDS011;10778;48.962;9.018;2023-02-28T01:27:31;40.33;;;13.07;;
21239;SDS011;10778;48.962;9.018;2023-02-28T01:29:57;10.60;;;5.45;;
21239;SDS011;10778;48.962;9.018;2023-02-28T01:32:23;13.73;;;5.43;;
21239;SDS011;10778;48.962;9.018;2023-02-28T01:34:49;23.00;;;8.07;;
21239;SDS011;10778;48.962;9.018;2023-02-28T01:37:15;11.48;;;5.38;;
21239;SDS011;10778;48.962;9.018;2023-02-28T01:39:43;6.45;;;3.65;;
21239;SDS011;10778;48.962;9.018;2023-02-28T01:42:09;5.57;;;3.13;;
21239;SDS011;10778;48.962;9.018;2023-02-28T01:47:28;9.45;;;4.68;;
21239;SDS011;10778;48.962;9.018;2023-02-28T01:49:57;7.50;;;3.67;;
21239;SDS011;10778;48.962;9.018;2023-02-28T01:52:24;8.00;;;4.30;;
21239;SDS011;10778;48.962;9.018;2023-02-28T01:54:54;11.13;;;4.78;;
21239;SDS011;10778;48.962;9.018;2023-02-28T01:57:23;14.00;;;4.95;;
21239;SDS011;10778;48.962;9.018;2023-02-28T01:59:56;14.77;;;5.57;;
21239;SDS011;10778;48.962;9.018;2023-02-28T02:02:25;34.88;;;9.93;;
21239;SDS011;10778;48.962;9.018;2023-02-28T02:05:04;25.00;;;8.82;;
21239;SDS011;10778;48.962;9.018;2023-02-28T02:07:37;13.45;;;6.05;;
21239;SDS011;10778;48.962;9.018;2023-02-28T02:10:16;7.45;;;4.10;;
21239;SDS011;10778;48.962;9.018;2023-02-28T02:15:48;43.50;;;15.48;;
21239;SDS011;10778;48.962;9.018;2023-02-28T02:29:36;7.75;;;4.53;;
21239;SDS011;10778;48.962;9.018;2023-02-28T02:40:16;7.72;;;4.18;;
21239;SDS011;10778;48.962;9.018;2023-02-28T02:43:06;14.88;;;5.85;;
21239;SDS011;10778;48.962;9.018;2023-02-28T02:45:56;7.78;;;4.68;;
21239;SDS011;10778;48.962;9.018;2023-02-28T02:48:30;11.77;;;6.07;;
21239;SDS011;10778;48.962;9.018;2023-02-28T02:50:59;10.55;;;5.45;;
21239;SDS011;10778;48.962;9.018;2023-02-28T02:53:31;11.50;;;5.55;;
21239;SDS011;10778;48.962;9.018;2023-02-28T02:56:02;31.20;;;12.45;;
21239;SDS011;10778;48.962;9.018;2023-02-28T02:58:35;11.75;;;5.53;;
21239;SDS011;10778;48.962;9.018;2023-02-28T03:01:10;6.82;;;4.40;;
21239;SDS011;10778;48.962;9.018;2023-02-28T03:03:42;9.05;;;4.22;;
21239;SDS011;10778;48.962;9.018;2023-02-28T03:06:08;8.90;;;4.22;;
21239;SDS011;10778;48.962;9.018;2023-02-28T03:08:36;7.30;;;4.07;;
21239;SDS011;10778;48.962;9.018;2023-02-28T03:11:05;7.00;;;4.50;;
21239;SDS011;10778;48.962;9.018;2023-02-28T03:13:51;8.38;;;4.30;;
21239;SDS011;10778;48.962;9.018;2023-02-28T03:19:17;8.60;;;4.90;;
21239;SDS011;10778;48.962;9.018;2023-02-28T03:21:56;6.45;;;4.30;;
21239;SDS011;10778;48.962;9.018;2023-02-28T03:24:34;5.72;;;4.05;;
21239;SDS011;10778;48.962;9.018;2023-02-28T03:33:07;7.35;;;4.63;;
21239;SDS011;10778;48.962;9.018;2023-02-28T03:35:57;7.38;;;4.90;;
21239;SDS011;10778;48.962;9.018;2023-02-28T03:41:31;7.53;;;4.53;;
21239;SDS011;10778;48.962;9.018;2023-02-28T03:44:06;7.97;;;4.97;;
21239;SDS011;10778;48.962;9.018;2023-02-28T03:46:42;9.07;;;4.35;;
21239;SDS011;10778;48.962;9.018;2023-02-28T03:49:16;5.85;;;3.92;;
21239;SDS011;10778;48.962;9.018;2023-02-28T03:51:46;6.70;;;4.20;;
21239;SDS011;10778;48.962;9.018;2023-02-28T03:54:35;6.45;;;4.40;;
21239;SDS011;10778;48.962;9.018;2023-02-28T03:59:45;6.70;;;4.50;;
21239;SDS011;10778;48.962;9.018;2023-02-28T04:02:16;7.53;;;4.30;;
21239;SDS011;10778;48.962;9.018;2023-02-28T04:04:44;7.78;;;4.45;;
21239;SDS011;10778;48.962;9.018;2023-02-28T04:07:15;7.63;;;4.80;;
21239;SDS011;10778;48.962;9.018;2023-02-28T04:09:41;7.90;;;4.82;;
21239;SDS011;10778;48.962;9.018;2023-02-28T04:12:07;9.00;;;5.43;;
21239;SDS011;10778;48.962;9.018;2023-02-28T04:14:34;10.00;;;5.30;;
21239;SDS011;10778;48.962;9.018;2023-02-28T04:17:00;8.00;;;4.80;;
21239;SDS011;10778;48.962;9.018;2023-02-28T04:19:25;10.25;;;5.10;;
21239;SDS011;10778;48.962;9.018;2023-02-28T04:21:52;7.18;;;4.53;;
21239;SDS011;10778;48.962;9.018;2023-02-28T04:24:23;8.48;;;5.03;;
21239;SDS011;10778;48.962;9.018;2023-02-28T04:26:52;8.45;;;4.75;;
21239;SDS011;10778;48.962;9.018;2023-02-28T04:29:20;9.90;;;4.97;;
21239;SDS011;10778;48.962;9.018;2023-02-28T04:31:57;11.57;;;4.80;;
21239;SDS011;10778;48.962;9.018;2023-02-28T04:34:25;7.30;;;4.72;;
21239;SDS011;10778;48.962;9.018;2023-02-28T04:36:57;7.20;;;5.22;;
21239;SDS011;10778;48.962;9.018;2023-02-28T04:39:44;9.35;;;4.90;;
21239;SDS011;10778;48.962;9.018;2023-02-28T04:42:11;8.32;;;4.85;;
21239;SDS011;10778;48.962;9.018;2023-02-28T04:44:38;6.82;;;4.75;;
21239;SDS011;10778;48.962;9.018;2023-02-28T04:47:04;8.15;;;4.90;;
21239;SDS011;10778;48.962;9.018;2023-02-28T04:49:31;8.25;;;4.75;;
21239;SDS011;10778;48.962;9.018;2023-02-28T04:51:57;7.55;;;5.20;;
21239;SDS011;10778;48.962;9.018;2023-02-28T04:54:22;9.57;;;4.93;;
21239;SDS011;10778;48.962;9.018;2023-02-28T04:56:49;10.27;;;5.25;;
21239;SDS011;10778;48.962;9.018;2023-02-28T04:59:15;8.02;;;5.50;;
21239;SDS011;10778;48.962;9.018;2023-02-28T05:01:44;9.02;;;5.47;;
21239;SDS011;10778;48.962;9.018;2023-02-28T05:04:12;10.07;;;5.68;;
21239;SDS011;10778;48.962;9.018;2023-02-28T05:06:38;8.90;;;5.47;;
21239;SDS011;10778;48.962;9.018;2023-02-28T05:09:04;7.55;;;5.40;;
21239;SDS011;10778;48.962;9.018;2023-02-28T05:11:31;6.38;;;4.93;;
21239;SDS011;10778;48.962;9.018;2023-02-28T05:14:13;9.38;;;5.35;;
21239;SDS011;10778;48.962;9.018;2023-02-28T05:16:39;7.15;;;4.90;;
21239;SDS011;10778;48.962;9.018;2023-02-28T05:19:05;8.60;;;5.40;;
21239;SDS011;10778;48.962;9.018;2023-02-28T05:21:32;9.52;;;6.53;;
21239;SDS011;10778;48.962;9.018;2023-02-28T05:24:05;10.27;;;6.10;;
21239;SDS011;10778;48.962;9.018;2023-02-28T05:26:34;11.13;;;6.30;;
21239;SDS011;10778;48.962;9.018;2023-02-28T05:29:02;10.48;;;6.03;;
21239;SDS011;10778;48.962;9.018;2023-02-28T05:31:28;11.27;;;6.10;;
21239;SDS011;10778;48.962;9.018;2023-02-28T05:33:55;9.52;;;5.35;;
21239;SDS011;10778;48.962;9.018;2023-02-28T05:36:21;7.65;;;5.47;;
21239;SDS011;10778;48.962;9.018;2023-02-28T05:38:47;9.10;;;5.75;;
21239;SDS011;10778;48.962;9.018;2023-02-28T05:41:14;9.00;;;5.47;;
21239;SDS011;10778;48.962;9.018;2023-02-28T05:43:41;9.93;;;5.80;;
21239;SDS011;10778;48.962;9.018;2023-02-28T05:46:08;8.70;;;5.10;;
21239;SDS011;10778;48.962;9.018;2023-02-28T05:48:36;7.45;;;5.40;;
21239;SDS011;10778;48.962;9.018;2023-02-28T05:51:04;7.70;;;5.38;;
21239;SDS011;10778;48.962;9.018;2023-02-28T05:53:31;9.55;;;5.63;;
21239;SDS011;10778;48.962;9.018;2023-02-28T05:56:04;8.40;;;5.13;;
21239;SDS011;10778;48.962;9.018;2023-02-28T05:58:41;10.93;;;6.00;;
21239;SDS011;10778;48.962;9.018;2023-02-28T06:04:40;7.57;;;5.22;;
21239;SDS011;10778;48.962;9.018;2023-02-28T06:07:32;8.98;;;5.45;;
21239;SDS011;10778;48.962;9.018;2023-02-28T06:10:04;7.80;;;5.22;;
21239;SDS011;10778;48.962;9.018;2023-02-28T06:12:33;7.65;;;5.00;;
21239;SDS011;10778;48.962;9.018;2023-02-28T06:18:14;11.43;;;5.40;;
21239;SDS011;10778;48.962;9.018;2023-02-28T06:20:56;9.45;;;5.45;;
21239;SDS011;10778;48.962;9.018;2023-02-28T06:23:28;9.65;;;6.00;;
21239;SDS011;10778;48.962;9.018;2023-02-28T06:25:56;7.28;;;5.20;;
21239;SDS011;10778;48.962;9.018;2023-02-28T06:28:25;8.35;;;5.00;;
21239;SDS011;10778;48.962;9.018;2023-02-28T06:30:51;8.93;;;5.35;;
21239;SDS011;10778;48.962;9.018;2023-02-28T06:33:23;7.38;;;4.95;;
21239;SDS011;10778;48.962;9.018;2023-02-28T06:35:50;8.52;;;5.32;;
21239;SDS011;10778;48.962;9.018;2023-02-28T06:38:18;7.90;;;5.65;;
21239;SDS011;10778;48.962;9.018;2023-02-28T06:40:45;8.68;;;5.55;;
21239;SDS011;10778;48.962;9.018;2023-02-28T06:43:22;9.45;;;5.80;;
21239;SDS011;10778;48.962;9.018;2023-02-28T06:45:54;8.27;;;5.40;;
21239;SDS011;10778;48.962;9.018;2023-02-28T06:48:21;8.05;;;5.40;;
21239;SDS011;10778;48.962;9.018;2023-02-28T06:50:48;8.63;;;5.32;;
21239;SDS011;10778;48.962;9.018;2023-02-28T06:53:14;8.00;;;5.40;;
21239;SDS011;10778;48.962;9.018;2023-02-28T06:55:43;8.02;;;5.30;;
21239;SDS011;10778;48.962;9.018;2023-02-28T06:58:09;9.77;;;5.57;;
21239;SDS011;10778;48.962;9.018;2023-02-28T07:00:45;9.15;;;5.40;;
21239;SDS011;10778;48.962;9.018;2023-02-28T07:03:25;9.27;;;5.53;;
21239;SDS011;10778;48.962;9.018;2023-02-28T07:05:52;7.95;;;5.13;;
21239;SDS011;10778;48.962;9.018;2023-02-28T07:08:20;8.65;;;5.32;;
21239;SDS011;10778;48.962;9.018;2023-02-28T07:10:46;9.05;;;5.57;;
21239;SDS011;10778;48.962;9.018;2023-02-28T07:13:13;8.95;;;5.25;;
21239;SDS011;10778;48.962;9.018;2023-02-28T07:15:39;9.38;;;5.78;;
21239;SDS011;10778;48.962;9.018;2023-02-28T07:18:05;9.20;;;5.55;;
21239;SDS011;10778;48.962;9.018;2023-02-28T07:20:49;10.10;;;5.75;;
21239;SDS011;10778;48.962;9.018;2023-02-28T07:23:53;9.82;;;5.90;;
21239;SDS011;10778;48.962;9.018;2023-02-28T07:27:06;11.90;;;5.65;;
21239;SDS011;10778;48.962;9.018;2023-02-28T07:30:28;12.05;;;5.82;;
21239;SDS011;10778;48.962;9.018;2023-02-28T07:32:55;11.55;;;6.05;;
21239;SDS011;10778;48.962;9.018;2023-02-28T07:35:29;11.15;;;6.40;;
21239;SDS011;10778;48.962;9.018;2023-02-28T07:38:00;10.07;;;6.15;;
21239;SDS011;10778;48.962;9.018;2023-02-28T07:40:41;10.65;;;5.90;;
21239;SDS011;10778;48.962;9.018;2023-02-28T07:43:07;9.00;;;5.75;;
21239;SDS011;10778;48.962;9.018;2023-02-28T07:45:33;8.80;;;6.05;;
21239;SDS011;10778;48.962;9.018;2023-02-28T07:48:00;11.30;;;6.28;;
21239;SDS011;10778;48.962;9.018;2023-02-28T07:50:26;10.68;;;6.70;;
21239;SDS011;10778;48.962;9.018;2023-02-28T07:52:57;10.90;;;6.47;;
21239;SDS011;10778;48.962;9.018;2023-02-28T07:55:31;8.80;;;6.45;;
21239;SDS011;10778;48.962;9.018;2023-02-28T07:57:57;11.73;;;6.55;;
21239;SDS011;10778;48.962;9.018;2023-02-28T08:00:24;10.23;;;6.60;;
21239;SDS011;10778;48.962;9.018;2023-02-28T08:02:50;10.50;;;6.57;;
21239;SDS011;10778;48.962;9.018;2023-02-28T08:05:16;9.82;;;6.60;;
21239;SDS011;10778;48.962;9.018;2023-02-28T08:07:43;10.90;;;6.50;;
21239;SDS011;10778;48.962;9.018;2023-02-28T08:10:09;10.68;;;6.88;;
21239;SDS011;10778;48.962;9.018;2023-02-28T08:12:39;9.07;;;6.88;;
21239;SDS011;10778;48.962;9.018;2023-02-28T08:15:08;11.02;;;6.90;;
21239;SDS011;10778;48.962;9.018;2023-02-28T08:18:16;10.18;;;6.85;;
21239;SDS011;10778;48.962;9.018;2023-02-28T08:20:48;11.75;;;7.20;;
21239;SDS011;10778;48.962;9.018;2023-02-28T08:23:17;11.20;;;7.07;;
21239;SDS011;10778;48.962;9.018;2023-02-28T08:25:52;13.32;;;7.53;;
21239;SDS011;10778;48.962;9.018;2023-02-28T08:28:32;13.07;;;7.78;;
21239;SDS011;10778;48.962;9.018;2023-02-28T08:30:59;9.57;;;6.68;;
21239;SDS011;10778;48.962;9.018;2023-02-28T08:33:44;10.75;;;7.28;;
21239;SDS011;10778;48.962;9.018;2023-02-28T08:36:17;10.27;;;7.40;;
21239;SDS011;10778;48.962;9.018;2023-02-28T08:39:00;9.80;;;6.72;;
21239;SDS011;10778;48.962;9.018;2023-02-28T08:41:30;12.05;;;7.32;;
21239;SDS011;10778;48.962;9.018;2023-02-28T08:43:56;12.32;;;7.53;;
21239;SDS011;10778;48.962;9.018;2023-02-28T08:46:25;13.35;;;7.30;;
21239;SDS011;10778;48.962;9.018;2023-02-28T08:48:52;13.25;;;7.82;;
21239;SDS011;10778;48.962;9.018;2023-02-28T08:51:25;15.30;;;7.47;;
21239;SDS011;10778;48.962;9.018;2023-02-28T08:53:57;11.73;;;7.28;;
21239;SDS011;10778;48.962;9.018;2023-02-28T08:56:25;12.98;;;7.60;;
21239;SDS011;10778;48.962;9.018;2023-02-28T08:58:54;11.95;;;7.20;;
21239;SDS011;10778;48.962;9.018;2023-02-28T09:01:22;12.02;;;7.80;;
21239;SDS011;10778;48.962;9.018;2023-02-28T09:03:53;14.75;;;8.25;;
21239;SDS011;10778;48.962;9.018;2023-02-28T09:06:21;11.23;;;7.63;;
21239;SDS011;10778;48.962;9.018;2023-02-28T09:08:52;13.85;;;8.90;;
21239;SDS011;10778;48.962;9.018;2023-02-28T09:11:22;13.88;;;8.50;;
21239;SDS011;10778;48.962;9.018;2023-02-28T09:13:49;13.50;;;8.13;;
21239;SDS011;10778;48.962;9.018;2023-02-28T09:16:17;13.93;;;8.60;;
21239;SDS011;10778;48.962;9.018;2023-02-28T09:18:45;13.57;;;8.35;;
21239;SDS011;10778;48.962;9.018;2023-02-28T09:21:12;11.35;;;8.13;;
21239;SDS011;10778;48.962;9.018;2023-02-28T09:23:43;13.38;;;8.38;;
21239;SDS011;10778;48.962;9.018;2023-02-28T09:26:17;11.02;;;8.07;;
21239;SDS011;10778;48.962;9.018;2023-02-28T09:28:45;12.60;;;8.27;;
21239;SDS011;10778;48.962;9.018;2023-02-28T09:31:12;13.55;;;8.15;;
21239;SDS011;10778;48.962;9.018;2023-02-28T09:33:48;12.30;;;8.45;;
21239;SDS011;10778;48.962;9.018;2023-02-28T09:36:15;12.18;;;8.18;;
21239;SDS011;10778;48.962;9.018;2023-02-28T09:38:41;13.93;;;8.02;;
21239;SDS011;10778;48.962;9.018;2023-02-28T09:41:16;11.38;;;8.10;;
21239;SDS011;10778;48.962;9.018;2023-02-28T09:43:46;13.43;;;8.20;;
21239;SDS011;10778;48.962;9.018;2023-02-28T09:48:57;12.07;;;8.00;;
21239;SDS011;10778;48.962;9.018;2023-02-28T09:54:19;13.27;;;8.30;;
21239;SDS011;10778;48.962;9.018;2023-02-28T09:56:53;13.10;;;8.10;;
21239;SDS011;10778;48.962;9.018;2023-02-28T10:05:30;12.65;;;7.97;;
21239;SDS011;10778;48.962;9.018;2023-02-28T10:08:14;14.57;;;9.05;;
21239;SDS011;10778;48.962;9.018;2023-02-28T10:10:46;13.68;;;8.25;;
21239;SDS011;10778;48.962;9.018;2023-02-28T10:13:32;13.52;;;8.13;;
21239;SDS011;10778;48.962;9.018;2023-02-28T10:22:14;13.75;;;8.70;;
21239;SDS011;10778;48.962;9.018;2023-02-28T10:24:46;12.23;;;7.95;;
21239;SDS011;10778;48.962;9.018;2023-02-28T10:27:23;12.95;;;8.07;;
21239;SDS011;10778;48.962;9.018;2023-02-28T10:30:01;13.38;;;8.73;;
21239;SDS011;10778;48.962;9.018;2023-02-28T10:37:38;16.13;;;8.68;;
21239;SDS011;10778;48.962;9.018;2023-02-28T10:40:30;12.75;;;8.80;;
21239;SDS011;10778;48.962;9.018;2023-02-28T10:45:25;16.60;;;8.48;;
21239;SDS011;10778;48.962;9.018;2023-02-28T10:50:50;12.07;;;8.18;;
21239;SDS011;10778;48.962;9.018;2023-02-28T11:01:16;12.48;;;7.90;;
21239;SDS011;10778;48.962;9.018;2023-02-28T11:03:42;10.60;;;7.90;;
21239;SDS011;10778;48.962;9.018;2023-02-28T11:06:16;11.20;;;8.23;;
21239;SDS011;10778;48.962;9.018;2023-02-28T11:08:43;11.90;;;8.45;;
21239;SDS011;10778;48.962;9.018;2023-02-28T11:11:12;9.25;;;7.68;;
21239;SDS011;10778;48.962;9.018;2023-02-28T11:13:38;13.15;;;8.48;;
21239;SDS011;10778;48.962;9.018;2023-02-28T11:16:05;10.05;;;7.97;;
21239;SDS011;10778;48.962;9.018;2023-02-28T11:18:46;11.02;;;7.93;;
21239;SDS011;10778;48.962;9.018;2023-02-28T11:21:16;12.55;;;7.97;;
21239;SDS011;10778;48.962;9.018;2023-02-28T11:24:12;11.93;;;7.82;;
21239;SDS011;10778;48.962;9.018;2023-02-28T11:26:54;12.02;;;8.20;;
21239;SDS011;10778;48.962;9.018;2023-02-28T11:29:21;12.45;;;8.73;;
21239;SDS011;10778;48.962;9.018;2023-02-28T11:37:45;11.45;;;8.38;;
21239;SDS011;10778;48.962;9.018;2023-02-28T11:40:17;9.38;;;7.55;;
21239;SDS011;10778;48.962;9.018;2023-02-28T11:54:44;11.55;;;8.00;;
21239;SDS011;10778;48.962;9.018;2023-02-28T12:01:12;10.95;;;7.75;;
21239;SDS011;10778;48.962;9.018;2023-02-28T12:16:38;10.98;;;7.50;;
21239;SDS011;10778;48.962;9.018;2023-02-28T12:19:26;12.15;;;7.45;;
21239;SDS011;10778;48.962;9.018;2023-02-28T12:25:36;10.93;;;8.25;;
21239;SDS011;10778;48.962;9.018;2023-02-28T12:28:27;13.18;;;7.95;;
21239;SDS011;10778;48.962;9.018;2023-02-28T12:31:26;12.60;;;8.77;;
21239;SDS011;10778;48.962;9.018;2023-02-28T12:34:04;13.25;;;8.30;;
21239;SDS011;10778;48.962;9.018;2023-02-28T12:36:44;14.07;;;8.73;;
21239;SDS011;10778;48.962;9.018;2023-02-28T12:39:26;11.75;;;8.20;;
21239;SDS011;10778;48.962;9.018;2023-02-28T12:42:05;13.00;;;8.10;;
21239;SDS011;10778;48.962;9.018;2023-02-28T12:47:16;11.35;;;8.40;;
21239;SDS011;10778;48.962;9.018;2023-02-28T12:49:45;12.48;;;8.18;;
21239;SDS011;10778;48.962;9.018;2023-02-28T12:52:20;12.73;;;7.97;;
21239;SDS011;10778;48.962;9.018;2023-02-28T12:55:00;12.57;;;9.38;;
21239;SDS011;10778;48.962;9.018;2023-02-28T12:57:39;11.57;;;7.97;;
21239;SDS011;10778;48.962;9.018;2023-02-28T13:00:15;12.50;;;7.93;;
21239;SDS011;10778;48.962;9.018;2023-02-28T13:08:41;11.70;;;8.35;;
21239;SDS011;10778;48.962;9.018;2023-02-28T13:11:26;11.77;;;8.55;;
21239;SDS011;10778;48.962;9.018;2023-02-28T13:13:59;12.00;;;8.18;;
21239;SDS011;10778;48.962;9.018;2023-02-28T13:16:27;11.45;;;8.63;;
21239;SDS011;10778;48.962;9.018;2023-02-28T13:18:56;12.38;;;8.80;;
21239;SDS011;10778;48.962;9.018;2023-02-28T13:21:41;11.38;;;8.30;;
21239;SDS011;10778;48.962;9.018;2023-02-28T13:24:10;10.20;;;8.65;;
21239;SDS011;10778;48.962;9.018;2023-02-28T13:32:18;11.93;;;8.43;;
21239;SDS011;10778;48.962;9.018;2023-02-28T14:06:51;12.02;;;8.80;;
21239;SDS011;10778;48.962;9.018;2023-02-28T14:11:51;12.25;;;9.18;;
21239;SDS011;10778;48.962;9.018;2023-02-28T14:17:03;11.68;;;8.88;;
21239;SDS011;10778;48.962;9.018;2023-02-28T14:19:31;11.95;;;9.18;;
21239;SDS011;10778;48.962;9.018;2023-02-28T14:27:22;12.65;;;9.50;;
21239;SDS011;10778;48.962;9.018;2023-02-28T14:38:28;12.32;;;9.80;;
21239;SDS011;10778;48.962;9.018;2023-02-28T14:40:58;14.52;;;9.02;;
21239;SDS011;10778;48.962;9.018;2023-02-28T14:43:28;12.25;;;9.02;;
21239;SDS011;10778;48.962;9.018;2023-02-28T14:46:01;12.68;;;8.93;;
21239;SDS011;10778;48.962;9.018;2023-02-28T14:48:29;15.65;;;9.75;;
21239;SDS011;10778;48.962;9.018;2023-02-28T14:50:59;12.20;;;9.45;;
21239;SDS011;10778;48.962;9.018;2023-02-28T14:53:30;12.82;;;9.80;;
21239;SDS011;10778;48.962;9.018;2023-02-28T14:56:01;11.65;;;8.88;;
21239;SDS011;10778;48.962;9.018;2023-02-28T14:58:29;13.10;;;9.52;;
21239;SDS011;10778;48.962;9.018;2023-02-28T15:00:58;12.30;;;9.23;;
21239;SDS011;10778;48.962;9.018;2023-02-28T15:05:59;12.13;;;9.10;;
21239;SDS011;10778;48.962;9.018;2023-02-28T15:08:27;14.57;;;9.43;;
21239;SDS011;10778;48.962;9.018;2023-02-28T15:13:31;11.30;;;8.93;;
21239;SDS011;10778;48.962;9.018;2023-02-28T15:16:03;12.95;;;9.35;;
21239;SDS011;10778;48.962;9.018;2023-02-28T15:21:15;12.48;;;9.05;;
21239;SDS011;10778;48.962;9.018;2023-02-28T15:23:46;12.90;;;9.23;;
21239;SDS011;10778;48.962;9.018;2023-02-28T15:26:18;13.30;;;8.90;;
21239;SDS011;10778;48.962;9.018;2023-02-28T15:28:48;13.68;;;9.48;;
21239;SDS011;10778;48.962;9.018;2023-02-28T15:31:19;11.90;;;9.32;;
21239;SDS011;10778;48.962;9.018;2023-02-28T15:33:55;15.90;;;9.43;;
21239;SDS011;10778;48.962;9.018;2023-02-28T15:36:24;15.20;;;10.10;;
21239;SDS011;10778;48.962;9.018;2023-02-28T15:38:54;13.07;;;9.68;;
21239;SDS011;10778;48.962;9.018;2023-02-28T15:41:23;13.02;;;9.77;;
21239;SDS011;10778;48.962;9.018;2023-02-28T15:44:13;12.75;;;9.88;;
21239;SDS011;10778;48.962;9.018;2023-02-28T15:49:24;13.90;;;9.50;;
21239;SDS011;10778;48.962;9.018;2023-02-28T15:51:51;12.10;;;9.80;;
21239;SDS011;10778;48.962;9.018;2023-02-28T15:54:20;11.68;;;9.27;;
21239;SDS011;10778;48.962;9.018;2023-02-28T15:56:53;12.35;;;9.52;;
21239;SDS011;10778;48.962;9.018;2023-02-28T15:59:26;13.60;;;10.63;;
21239;SDS011;10778;48.962;9.018;2023-02-28T16:04:36;21.40;;;17.98;;
21239;SDS011;10778;48.962;9.018;2023-02-28T16:07:04;22.63;;;18.92;;
21239;SDS011;10778;48.962;9.018;2023-02-28T16:09:31;14.43;;;10.18;;
21239;SDS011;10778;48.962;9.018;2023-02-28T16:12:03;15.27;;;10.75;;
21239;SDS011;10778;48.962;9.018;2023-02-28T16:14:30;13.98;;;9.90;;
21239;SDS011;10778;48.962;9.018;2023-02-28T16:17:02;12.23;;;10.02;;
21239;SDS011;10778;48.962;9.018;2023-02-28T16:19:30;13.40;;;10.43;;
21239;SDS011;10778;48.962;9.018;2023-02-28T16:21:57;14.23;;;10.55;;
21239;SDS011;10778;48.962;9.018;2023-02-28T16:24:23;14.50;;;11.13;;
21239;SDS011;10778;48.962;9.018;2023-02-28T16:26:50;14.90;;;10.48;;
21239;SDS011;10778;48.962;9.018;2023-02-28T16:29:21;15.18;;;10.82;;
21239;SDS011;10778;48.962;9.018;2023-02-28T16:31:52;13.48;;;10.45;;
21239;SDS011;10778;48.962;9.018;2023-02-28T16:34:19;14.57;;;10.27;;
21239;SDS011;10778;48.962;9.018;2023-02-28T16:36:48;12.45;;;9.73;;
21239;SDS011;10778;48.962;9.018;2023-02-28T16:39:15;12.90;;;9.65;;
21239;SDS011;10778;48.962;9.018;2023-02-28T16:41:44;14.70;;;10.38;;
21239;SDS011;10778;48.962;9.018;2023-02-28T16:44:27;13.80;;;10.07;;
21239;SDS011;10778;48.962;9.018;2023-02-28T16:46:54;15.50;;;10.18;;
21239;SDS011;10778;48.962;9.018;2023-02-28T16:49:20;13.88;;;10.73;;
21239;SDS011;10778;48.962;9.018;2023-02-28T16:51:46;12.98;;;10.00;;
21239;SDS011;10778;48.962;9.018;2023-02-28T16:54:13;12.80;;;9.65;;
21239;SDS011;10778;48.962;9.018;2023-02-28T16:56:43;16.27;;;10.18;;
21239;SDS011;10778;48.962;9.018;2023-02-28T16:59:10;14.43;;;10.00;;
21239;SDS011;10778;48.962;9.018;2023-02-28T17:01:37;14.63;;;10.38;;
21239;SDS011;10778;48.962;9.018;2023-02-28T17:04:03;14.23;;;10.38;;
21239;SDS011;10778;48.962;9.018;2023-02-28T17:06:29;15.68;;;10.07;;
21239;SDS011;10778;48.962;9.018;2023-02-28T17:08:56;15.88;;;9.88;;
21239;SDS011;10778;48.962;9.018;2023-02-28T17:11:25;13.65;;;9.77;;
21239;SDS011;10778;48.962;9.018;2023-02-28T17:13:51;18.05;;;11.05;;
21239;SDS011;10778;48.962;9.018;2023-02-28T17:16:27;15.13;;;9.90;;
21239;SDS011;10778;48.962;9.018;2023-02-28T17:18:59;16.05;;;9.88;;
21239;SDS011;10778;48.962;9.018;2023-02-28T17:21:28;14.15;;;9.70;;
21239;SDS011;10778;48.962;9.018;2023-02-28T17:23:54;13.60;;;9.40;;
21239;SDS011;10778;48.962;9.018;2023-02-28T17:26:21;13.35;;;9.55;;
21239;SDS011;10778;48.962;9.018;2023-02-28T17:28:52;13.70;;;9.48;;
21239;SDS011;10778;48.962;9.018;2023-02-28T17:31:24;14.15;;;9.48;;
21239;SDS011;10778;48.962;9.018;2023-02-28T17:33:52;14.70;;;9.70;;
21239;SDS011;10778;48.962;9.018;2023-02-28T17:36:24;14.50;;;9.43;;
21239;SDS011;10778;48.962;9.018;2023-02-28T17:38:52;13.77;;;9.88;;
21239;SDS011;10778;48.962;9.018;2023-02-28T17:41:20;15.02;;;9.75;;
21239;SDS011;10778;48.962;9.018;2023-02-28T17:43:47;12.95;;;10.00;;
21239;SDS011;10778;48.962;9.018;2023-02-28T17:46:19;13.70;;;9.50;;
21239;SDS011;10778;48.962;9.018;2023-02-28T17:48:47;13.65;;;8.85;;
21239;SDS011;10778;48.962;9.018;2023-02-28T17:51:14;13.23;;;9.77;;
21239;SDS011;10778;48.962;9.018;2023-02-28T17:53:41;16.52;;;10.48;;
21239;SDS011;10778;48.962;9.018;2023-02-28T17:56:15;13.70;;;10.15;;
21239;SDS011;10778;48.962;9.018;2023-02-28T17:58:43;19.35;;;13.73;;
21239;SDS011;10778;48.962;9.018;2023-02-28T18:01:09;14.73;;;11.25;;
21239;SDS011;10778;48.962;9.018;2023-02-28T18:03:37;15.20;;;10.70;;
21239;SDS011;10778;48.962;9.018;2023-02-28T18:06:04;14.70;;;9.88;;
21239;SDS011;10778;48.962;9.018;2023-02-28T18:08:31;17.25;;;10.13;;
21239;SDS011;10778;48.962;9.018;2023-02-28T18:11:00;13.98;;;10.00;;
21239;SDS011;10778;48.962;9.018;2023-02-28T18:13:27;19.02;;;11.70;;
21239;SDS011;10778;48.962;9.018;2023-02-28T18:15:56;14.50;;;9.52;;
21239;SDS011;10778;48.962;9.018;2023-02-28T18:18:22;14.05;;;10.27;;
21239;SDS011;10778;48.962;9.018;2023-02-28T18:20:48;14.63;;;10.68;;